createdAt,value
2023-04-15T00:00:02.924Z,0.33
2023-04-15T00:01:02.910Z,0.30
2023-04-15T00:02:03.034Z,0.27
2023-04-15T00:03:03.055Z,0.24
2023-04-15T00:04:02.995Z,0.22
2023-04-15T00:05:02.871Z,0.20
2023-04-15T00:06:02.849Z,0.18
2023-04-15T00:07:02.840Z,0.14
2023-04-15T00:08:03.604Z,0.10
2023-04-15T00:09:03.022Z,0.09
2023-04-15T00:10:02.813Z,0.10
2023-04-15T00:11:03.060Z,0.12
2023-04-15T00:12:02.786Z,0.14
2023-04-15T00:13:02.806Z,0.15
2023-04-15T00:14:02.796Z,0.17
2023-04-15T00:15:02.749Z,0.19
2023-04-15T00:16:02.765Z,0.23
2023-04-15T00:17:02.794Z,0.26
2023-04-15T00:18:02.710Z,0.29
2023-04-15T00:19:02.889Z,0.33
2023-04-15T00:20:02.722Z,0.37
2023-04-15T00:21:02.662Z,0.41
2023-04-15T00:22:02.677Z,0.47
2023-04-15T00:23:02.673Z,0.52
2023-04-15T00:24:02.638Z,0.56
2023-04-15T00:25:02.612Z,0.57
2023-04-15T00:26:02.643Z,0.57
2023-04-15T00:27:02.580Z,0.57
2023-04-15T00:28:02.596Z,0.56
2023-04-15T00:29:02.604Z,0.55
2023-04-15T00:30:02.571Z,0.52
2023-04-15T00:31:02.619Z,0.48
2023-04-15T00:32:02.534Z,0.42
2023-04-15T00:33:02.577Z,0.37
2023-04-15T00:34:02.526Z,0.31
2023-04-15T00:35:02.483Z,0.26
2023-04-15T00:36:02.520Z,0.22
2023-04-15T00:37:02.474Z,0.19
2023-04-15T00:38:02.460Z,0.16
2023-04-15T00:39:02.586Z,0.13
2023-04-15T00:40:02.434Z,0.08
2023-04-15T00:41:02.412Z,0.06
2023-04-15T00:42:02.419Z,0.04
2023-04-15T00:43:02.406Z,0.04
2023-04-15T00:44:02.384Z,0.06
2023-04-15T00:45:02.382Z,0.09
2023-04-15T00:46:02.419Z,0.13
2023-04-15T00:47:02.355Z,0.18
2023-04-15T00:48:02.388Z,0.22
2023-04-15T00:49:02.513Z,0.25
2023-04-15T00:50:02.314Z,0.24
2023-04-15T00:51:02.324Z,0.23
2023-04-15T00:52:02.339Z,0.19
2023-04-15T00:53:02.309Z,0.14
2023-04-15T00:54:02.303Z,0.11
2023-04-15T00:55:02.251Z,0.09
2023-04-15T00:56:02.262Z,0.10
2023-04-15T00:57:02.240Z,0.14
2023-04-15T00:58:02.210Z,0.18
2023-04-15T00:59:02.462Z,0.22
2023-04-15T01:00:02.189Z,0.25
2023-04-15T01:01:02.170Z,0.27
2023-04-15T01:02:02.207Z,0.27
2023-04-15T01:03:56.522Z,1.30
2023-04-15T01:04:57.426Z,0.82
2023-04-15T01:05:57.407Z,0.48
2023-04-15T01:06:57.377Z,0.25
2023-04-15T01:07:57.407Z,0.10
2023-04-15T01:08:57.344Z,-0.02
2023-04-15T01:09:57.355Z,-0.09
2023-04-15T01:10:57.326Z,-0.11
2023-04-15T01:11:57.325Z,-0.10
2023-04-15T01:12:57.313Z,-0.09
2023-04-15T01:13:57.319Z,-0.09
2023-04-15T01:14:57.304Z,-0.09
2023-04-15T01:15:57.345Z,-0.10
2023-04-15T01:16:57.246Z,-0.12
2023-04-15T01:17:57.273Z,-0.13
2023-04-15T01:18:57.224Z,-0.15
2023-04-15T01:19:57.222Z,-0.17
2023-04-15T01:20:57.208Z,-0.19
2023-04-15T01:21:57.261Z,-0.22
2023-04-15T01:22:57.237Z,-0.26
2023-04-15T01:23:57.163Z,-0.30
2023-04-15T01:24:57.160Z,-0.31
2023-04-15T01:25:57.146Z,-0.29
2023-04-15T01:26:57.134Z,-0.27
2023-04-15T01:27:57.162Z,-0.24
2023-04-15T01:28:57.113Z,-0.22
2023-04-15T01:29:57.091Z,-0.18
2023-04-15T01:30:57.081Z,-0.13
2023-04-15T01:31:57.114Z,-0.07
2023-04-15T01:32:57.193Z,0.01
2023-04-15T01:33:57.066Z,0.10
2023-04-15T01:34:57.030Z,0.17
2023-04-15T01:35:57.021Z,0.21
2023-04-15T01:36:57.015Z,0.24
2023-04-15T01:37:57.011Z,0.24
2023-04-15T01:38:57.002Z,0.24
2023-04-15T01:39:56.953Z,0.24
2023-04-15T01:40:56.960Z,0.23
2023-04-15T01:41:56.949Z,0.22
2023-04-15T01:42:56.923Z,0.20
2023-04-15T01:43:56.922Z,0.18
2023-04-15T01:44:56.937Z,0.15
2023-04-15T01:45:56.909Z,0.14
2023-04-15T01:46:57.028Z,0.14
2023-04-15T01:47:56.907Z,0.16
2023-04-15T01:48:56.868Z,0.17
2023-04-15T01:49:56.880Z,0.19
2023-04-15T01:50:56.948Z,0.24
2023-04-15T01:51:56.898Z,0.32
2023-04-15T01:52:56.833Z,0.43
2023-04-15T01:53:56.804Z,0.54
2023-04-15T01:54:56.788Z,0.62
2023-04-15T01:55:56.788Z,0.66
2023-04-15T01:56:56.794Z,0.68
2023-04-15T01:57:56.754Z,0.68
2023-04-15T01:58:56.744Z,0.67
2023-04-15T01:59:56.712Z,0.65
2023-04-15T02:00:56.750Z,0.63
2023-04-15T02:01:56.764Z,0.62
2023-04-15T02:02:56.739Z,0.61
2023-04-15T02:03:56.691Z,0.60
2023-04-15T02:04:56.648Z,0.60
2023-04-15T02:05:56.648Z,0.59
2023-04-15T02:06:56.662Z,0.57
2023-04-15T02:07:56.658Z,0.56
2023-04-15T02:08:56.639Z,0.54
2023-04-15T02:09:56.588Z,0.50
2023-04-15T02:10:56.577Z,0.46
2023-04-15T02:11:56.572Z,0.42
2023-04-15T02:12:56.591Z,0.39
2023-04-15T02:13:56.567Z,0.37
2023-04-15T02:14:56.523Z,0.35
2023-04-15T02:15:56.519Z,0.33
2023-04-15T02:16:56.641Z,0.32
2023-04-15T02:17:56.607Z,0.31
2023-04-15T02:18:56.546Z,0.27
2023-04-15T02:19:56.494Z,0.21
2023-04-15T02:20:56.478Z,0.12
2023-04-15T02:21:56.494Z,0.02
2023-04-15T02:22:56.435Z,-0.09
2023-04-15T02:23:56.422Z,-0.19
2023-04-15T02:24:56.453Z,-0.30
2023-04-15T02:25:56.411Z,-0.41
2023-04-15T02:26:56.386Z,-0.53
2023-04-15T02:27:56.378Z,-0.64
2023-04-15T02:28:56.349Z,-0.74
2023-04-15T02:29:56.346Z,-0.85
2023-04-15T02:30:56.372Z,-0.95
2023-04-15T02:31:56.365Z,-1.04
2023-04-15T02:32:56.363Z,-1.13
2023-04-15T02:33:56.323Z,-1.20
2023-04-15T02:34:56.287Z,-1.29
2023-04-15T02:35:56.283Z,-1.38
2023-04-15T02:36:56.286Z,-1.45
2023-04-15T02:37:56.264Z,-1.50
2023-04-15T02:38:56.246Z,-1.55
2023-04-15T02:39:56.214Z,-1.60
2023-04-15T02:40:56.201Z,-1.64
2023-04-15T02:41:56.205Z,-1.68
2023-04-15T02:42:56.196Z,-1.72
2023-04-15T02:43:56.172Z,-1.75
2023-04-15T02:44:56.193Z,-1.78
2023-04-15T02:45:56.167Z,-1.80
2023-04-15T02:46:56.141Z,-1.80
2023-04-15T02:47:56.260Z,-1.79
2023-04-15T02:48:56.125Z,-1.80
2023-04-15T02:49:56.123Z,-1.81
2023-04-15T02:50:56.108Z,-1.81
2023-04-15T02:51:56.089Z,-1.76
2023-04-15T02:52:56.087Z,-1.70
2023-04-15T02:53:56.052Z,-1.67
2023-04-15T02:54:56.117Z,-1.62
2023-04-15T02:55:56.009Z,-1.57
2023-04-15T02:56:56.006Z,-1.54
2023-04-15T02:57:56.210Z,-1.53
2023-04-15T02:58:55.976Z,-1.53
2023-04-15T02:59:55.955Z,-1.53
2023-04-15T03:00:56.002Z,-1.52
2023-04-15T03:01:56.029Z,-1.50
2023-04-15T03:02:55.993Z,-1.49
2023-04-15T03:03:56.060Z,-1.49
2023-04-15T03:04:55.921Z,-1.49
2023-04-15T03:05:55.906Z,-1.47
2023-04-15T03:06:55.912Z,-1.46
2023-04-15T03:07:55.861Z,-1.46
2023-04-15T03:08:55.864Z,-1.47
2023-04-15T03:09:55.839Z,-1.47
2023-04-15T03:10:55.821Z,-1.46
2023-04-15T03:11:55.863Z,-1.46
2023-04-15T03:12:55.845Z,-1.45
2023-04-15T03:13:55.806Z,-1.43
2023-04-15T03:14:55.778Z,-1.45
2023-04-15T03:15:55.825Z,-1.48
2023-04-15T03:16:55.751Z,-1.47
2023-04-15T03:17:55.818Z,-1.47
2023-04-15T03:18:55.792Z,-1.46
2023-04-15T03:19:55.783Z,-1.47
2023-04-15T03:20:55.691Z,-1.49
2023-04-15T03:21:55.719Z,-1.52
2023-04-15T03:22:55.765Z,-1.53
2023-04-15T03:23:55.683Z,-1.55
2023-04-15T03:24:55.689Z,-1.56
2023-04-15T03:25:55.643Z,-1.56
2023-04-15T03:26:55.648Z,-1.56
2023-04-15T03:27:55.622Z,-1.55
2023-04-15T03:28:55.679Z,-1.54
2023-04-15T03:29:55.600Z,-1.54
2023-04-15T03:30:55.693Z,-1.57
2023-04-15T03:31:55.587Z,-1.61
2023-04-15T03:32:55.648Z,-1.63
2023-04-15T03:33:55.554Z,-1.63
2023-04-15T03:34:55.577Z,-1.63
2023-04-15T03:35:55.556Z,-1.61
2023-04-15T03:36:55.544Z,-1.56
2023-04-15T03:37:55.518Z,-1.50
2023-04-15T03:38:55.486Z,-1.45
2023-04-15T03:39:55.480Z,-1.40
2023-04-15T03:40:55.445Z,-1.33
2023-04-15T03:41:55.455Z,-1.27
2023-04-15T03:42:55.440Z,-1.21
2023-04-15T03:43:56.145Z,-1.16
2023-04-15T03:44:55.412Z,-1.12
2023-04-15T03:45:55.381Z,-1.08
2023-04-15T03:46:55.459Z,-1.07
2023-04-15T03:47:55.485Z,-1.08
2023-04-15T03:48:55.368Z,-1.10
2023-04-15T03:49:55.412Z,-1.11
2023-04-15T03:50:55.367Z,-1.14
2023-04-15T03:51:55.343Z,-1.20
2023-04-15T03:52:55.352Z,-1.25
2023-04-15T03:53:55.285Z,-1.29
2023-04-15T03:54:55.290Z,-1.30
2023-04-15T03:55:55.257Z,-1.33
2023-04-15T03:56:55.250Z,-1.36
2023-04-15T03:57:55.279Z,-1.39
2023-04-15T03:58:55.259Z,-1.46
2023-04-15T03:59:55.302Z,-1.52
2023-04-15T04:00:55.210Z,-1.55
2023-04-15T04:01:55.290Z,-1.57
2023-04-15T04:02:55.333Z,-1.62
2023-04-15T04:03:55.379Z,-1.68
2023-04-15T04:04:55.172Z,-1.72
2023-04-15T04:05:55.140Z,-1.72
2023-04-15T04:06:55.142Z,-1.66
2023-04-15T04:07:55.131Z,-1.59
2023-04-15T04:08:55.133Z,-1.55
2023-04-15T04:09:55.101Z,-1.55
2023-04-15T04:10:55.094Z,-1.57
2023-04-15T04:11:55.085Z,-1.59
2023-04-15T04:12:55.051Z,-1.61
2023-04-15T04:13:55.039Z,-1.59
2023-04-15T04:14:55.068Z,-1.55
2023-04-15T04:15:55.015Z,-1.49
2023-04-15T04:16:55.074Z,-1.45
2023-04-15T04:17:55.041Z,-1.40
2023-04-15T04:18:55.029Z,-1.35
2023-04-15T04:19:55.032Z,-1.32
2023-04-15T04:20:54.970Z,-1.30
2023-04-15T04:21:54.959Z,-1.30
2023-04-15T04:22:54.924Z,-1.30
2023-04-15T04:23:54.942Z,-1.30
2023-04-15T04:24:54.915Z,-1.32
2023-04-15T04:25:54.906Z,-1.35
2023-04-15T04:26:54.901Z,-1.39
2023-04-15T04:27:54.882Z,-1.44
2023-04-15T04:28:54.884Z,-1.50
2023-04-15T04:29:54.872Z,-1.57
2023-04-15T04:30:54.848Z,-1.63
2023-04-15T04:31:54.812Z,-1.71
2023-04-15T04:32:54.844Z,-1.79
2023-04-15T04:33:54.807Z,-1.86
2023-04-15T04:34:54.807Z,-1.92
2023-04-15T04:35:54.769Z,-1.95
2023-04-15T04:36:54.748Z,-1.95
2023-04-15T04:37:54.774Z,-1.93
2023-04-15T04:38:54.771Z,-1.91
2023-04-15T04:39:54.763Z,-1.89
2023-04-15T04:40:54.766Z,-1.88
2023-04-15T04:41:54.687Z,-1.87
2023-04-15T04:42:54.678Z,-1.85
2023-04-15T04:43:54.682Z,-1.82
2023-04-15T04:44:54.671Z,-1.80
2023-04-15T04:45:54.702Z,-1.76
2023-04-15T04:46:54.617Z,-1.72
2023-04-15T04:47:54.639Z,-1.66
2023-04-15T04:48:54.632Z,-1.62
2023-04-15T04:49:54.603Z,-1.60
2023-04-15T04:50:54.599Z,-1.59
2023-04-15T04:51:54.554Z,-1.60
2023-04-15T04:52:54.561Z,-1.63
2023-04-15T04:53:54.560Z,-1.66
2023-04-15T04:54:54.562Z,-1.69
2023-04-15T04:55:54.543Z,-1.72
2023-04-15T04:56:54.508Z,-1.74
2023-04-15T04:57:54.479Z,-1.74
2023-04-15T04:58:54.494Z,-1.73
2023-04-15T04:59:54.481Z,-1.71
2023-04-15T05:00:54.472Z,-1.67
2023-04-15T05:01:54.549Z,-1.64
2023-04-15T05:02:54.509Z,-1.61
2023-04-15T05:03:54.487Z,-1.57
2023-04-15T05:04:54.412Z,-1.54
2023-04-15T05:05:54.403Z,-1.51
2023-04-15T05:06:54.407Z,-1.48
2023-04-15T05:07:54.400Z,-1.45
2023-04-15T05:08:54.356Z,-1.41
2023-04-15T05:09:54.375Z,-1.36
2023-04-15T05:10:54.344Z,-1.33
2023-04-15T05:11:54.355Z,-1.31
2023-04-15T05:12:54.331Z,-1.29
2023-04-15T05:13:54.332Z,-1.26
2023-04-15T05:14:54.312Z,-1.23
2023-04-15T05:15:54.334Z,-1.18
2023-04-15T05:16:54.286Z,-1.14
2023-04-15T05:17:54.272Z,-1.11
2023-04-15T05:18:54.281Z,-1.07
2023-04-15T05:19:54.261Z,-1.01
2023-04-15T05:20:54.247Z,-0.95
2023-04-15T05:21:54.246Z,-0.89
2023-04-15T05:22:54.215Z,-0.83
2023-04-15T05:23:54.207Z,-0.74
2023-04-15T05:24:54.196Z,-0.63
2023-04-15T05:25:54.185Z,-0.52
2023-04-15T05:26:54.196Z,-0.40
2023-04-15T05:27:54.134Z,-0.29
2023-04-15T05:28:54.107Z,-0.18
2023-04-15T05:29:54.234Z,-0.08
2023-04-15T05:30:54.172Z,0.00
2023-04-15T05:31:54.097Z,0.08
2023-04-15T05:32:54.099Z,0.16
2023-04-15T05:33:54.126Z,0.23
2023-04-15T05:34:54.148Z,0.31
2023-04-15T05:35:54.014Z,0.37
2023-04-15T05:36:53.995Z,0.44
2023-04-15T05:37:54.024Z,0.50
2023-04-15T05:38:54.022Z,0.56
2023-04-15T05:39:54.001Z,0.62
2023-04-15T05:40:53.981Z,0.66
2023-04-15T05:41:53.951Z,0.70
2023-04-15T05:42:53.916Z,0.73
2023-04-15T05:43:53.944Z,0.75
2023-04-15T05:44:53.896Z,0.77
2023-04-15T05:45:54.023Z,0.79
2023-04-15T05:46:53.896Z,0.83
2023-04-15T05:47:53.926Z,0.87
2023-04-15T05:48:56.033Z,0.91
2023-04-15T05:49:53.837Z,0.96
2023-04-15T05:50:53.828Z,1.01
2023-04-15T05:51:53.833Z,1.07
2023-04-15T05:52:53.837Z,1.12
2023-04-15T05:53:53.809Z,1.17
2023-04-15T05:54:53.789Z,1.21
2023-04-15T05:55:53.835Z,1.26
2023-04-15T05:56:53.818Z,1.29
2023-04-15T05:57:53.807Z,1.31
2023-04-15T05:58:53.985Z,1.32
2023-04-15T05:59:53.751Z,1.32
2023-04-15T06:00:53.699Z,1.33
2023-04-15T06:01:53.762Z,1.33
2023-04-15T06:02:53.724Z,1.34
2023-04-15T06:03:53.800Z,1.37
2023-04-15T06:04:53.690Z,1.41
2023-04-15T06:05:53.635Z,1.45
2023-04-15T06:06:53.640Z,1.51
2023-04-15T06:07:53.629Z,1.56
2023-04-15T06:08:53.596Z,1.62
2023-04-15T06:09:53.610Z,1.68
2023-04-15T06:10:53.556Z,1.74
2023-04-15T06:11:53.605Z,1.80
2023-04-15T06:12:53.553Z,1.84
2023-04-15T06:13:53.559Z,1.86
2023-04-15T06:14:53.538Z,1.88
2023-04-15T06:15:53.545Z,1.90
2023-04-15T06:16:53.517Z,1.93
2023-04-15T06:17:53.542Z,1.98
2023-04-15T06:18:53.480Z,2.03
2023-04-15T06:19:53.470Z,2.08
2023-04-15T06:20:53.456Z,2.12
2023-04-15T06:21:53.451Z,2.19
2023-04-15T06:22:53.429Z,2.26
2023-04-15T06:23:53.401Z,2.33
2023-04-15T06:24:53.422Z,2.39
2023-04-15T06:25:53.392Z,2.44
2023-04-15T06:26:53.372Z,2.47
2023-04-15T06:27:53.387Z,2.51
2023-04-15T06:28:53.338Z,2.54
2023-04-15T06:29:53.341Z,2.60
2023-04-15T06:30:53.336Z,2.66
2023-04-15T06:31:53.433Z,2.71
2023-04-15T06:32:53.351Z,2.78
2023-04-15T06:33:53.307Z,2.84
2023-04-15T06:34:53.281Z,2.88
2023-04-15T06:35:53.271Z,2.89
2023-04-15T06:36:53.237Z,2.89
2023-04-15T06:37:53.257Z,2.90
2023-04-15T06:38:53.230Z,2.93
2023-04-15T06:39:53.186Z,2.96
2023-04-15T06:40:53.203Z,2.99
2023-04-15T06:41:53.162Z,2.99
2023-04-15T06:42:53.183Z,2.98
2023-04-15T06:43:53.155Z,2.99
2023-04-15T06:44:53.225Z,3.07
2023-04-15T06:45:53.228Z,3.19
2023-04-15T06:46:53.155Z,3.29
2023-04-15T06:51:38.554Z,3.39
2023-04-15T06:51:44.435Z,3.53
2023-04-15T06:52:44.429Z,3.65
2023-04-15T06:53:44.434Z,3.73
2023-04-15T06:54:44.402Z,3.80
2023-04-15T06:55:44.360Z,3.86
2023-04-15T06:56:44.389Z,3.90
2023-04-15T06:57:44.377Z,3.90
2023-04-15T06:58:44.380Z,3.88
2023-04-15T06:59:44.360Z,3.87
2023-04-15T07:00:44.319Z,3.87
2023-04-15T07:01:44.316Z,3.89
2023-04-15T07:02:44.421Z,3.90
2023-04-15T07:03:44.369Z,3.96
2023-04-15T07:04:44.259Z,4.04
2023-04-15T07:05:44.260Z,4.10
2023-04-15T07:07:05.249Z,4.16
2023-04-15T07:07:44.219Z,4.25
2023-04-15T07:08:44.239Z,4.32
2023-04-15T07:09:44.208Z,4.33
2023-04-15T07:10:44.204Z,4.34
2023-04-15T07:11:44.188Z,4.40
2023-04-15T07:12:44.160Z,4.50
2023-04-15T07:13:44.151Z,4.57
2023-04-15T07:14:44.159Z,4.64
2023-04-15T07:15:45.107Z,4.76
2023-04-15T07:16:44.145Z,4.87
2023-04-15T07:17:44.147Z,4.93
2023-04-15T07:18:44.101Z,4.95
2023-04-15T07:19:44.092Z,4.99
2023-04-15T07:20:44.078Z,5.02
2023-04-15T07:21:44.040Z,4.98
2023-04-15T07:22:44.019Z,4.89
2023-04-15T07:23:44.008Z,4.80
2023-04-15T07:24:44.026Z,4.76
2023-04-15T07:25:43.993Z,4.74
2023-04-15T07:26:43.971Z,4.77
2023-04-15T07:27:43.958Z,4.84
2023-04-15T07:28:43.944Z,4.88
2023-04-15T07:29:43.959Z,4.92
2023-04-15T07:30:44.022Z,4.97
2023-04-15T07:31:43.909Z,5.04
2023-04-15T07:32:43.941Z,5.16
2023-04-15T07:33:43.913Z,5.32
2023-04-15T07:34:43.893Z,5.45
2023-04-15T07:35:43.894Z,5.55
2023-04-15T07:36:43.841Z,5.65
2023-04-15T07:37:43.824Z,5.74
2023-04-15T07:38:43.847Z,5.83
2023-04-15T07:39:43.828Z,5.91
2023-04-15T07:40:43.820Z,5.95
2023-04-15T07:41:43.792Z,6.01
2023-04-15T07:42:43.779Z,6.12
2023-04-15T07:43:43.762Z,6.27
2023-04-15T07:44:43.778Z,6.39
2023-04-15T07:45:43.850Z,6.47
2023-04-15T07:46:43.808Z,6.53
2023-04-15T07:47:43.747Z,6.55
2023-04-15T07:48:43.689Z,6.58
2023-04-15T07:49:43.702Z,6.67
2023-04-15T07:50:43.706Z,6.83
2023-04-15T07:51:43.657Z,7.02
2023-04-15T07:52:43.631Z,7.15
2023-04-15T07:53:43.644Z,7.29
2023-04-15T07:54:43.611Z,7.37
2023-04-15T07:55:43.629Z,7.49
2023-04-15T07:56:43.643Z,7.70
2023-04-15T07:57:43.605Z,7.84
2023-04-15T07:58:43.559Z,7.95
2023-04-15T07:59:43.557Z,8.05
2023-04-15T08:00:43.546Z,8.16
2023-04-15T08:01:43.556Z,8.26
2023-04-15T08:02:43.751Z,8.40
2023-04-15T08:03:43.765Z,8.61
2023-04-15T08:04:43.697Z,8.81
2023-04-15T08:05:43.514Z,8.91
2023-04-15T08:06:43.534Z,8.96
2023-04-15T08:07:43.462Z,9.02
2023-04-15T08:08:43.444Z,9.09
2023-04-15T08:09:43.426Z,9.10
2023-04-15T08:10:43.417Z,9.02
2023-04-15T08:11:43.405Z,8.94
2023-04-15T08:12:43.410Z,8.96
2023-04-15T08:13:43.380Z,9.11
2023-04-15T08:14:43.373Z,9.35
2023-04-15T08:15:43.402Z,9.63
2023-04-15T08:16:43.376Z,9.95
2023-04-15T08:17:43.325Z,10.28
2023-04-15T08:18:43.340Z,10.55
2023-04-15T08:19:43.290Z,10.80
2023-04-15T08:20:43.279Z,11.01
2023-04-15T08:21:43.270Z,11.13
2023-04-15T08:22:43.253Z,11.31
2023-04-15T08:23:43.280Z,11.59
2023-04-15T08:24:43.223Z,11.83
2023-04-15T08:25:43.221Z,12.11
2023-04-15T08:26:43.234Z,12.26
2023-04-15T08:27:43.199Z,12.10
2023-04-15T08:28:43.177Z,11.94
2023-04-15T08:29:43.208Z,11.84
2023-04-15T08:30:43.175Z,11.54
2023-04-15T08:31:43.191Z,11.09
2023-04-15T08:32:43.202Z,10.83
2023-04-15T08:33:43.154Z,10.77
2023-04-15T08:34:43.123Z,10.73
2023-04-15T08:35:43.109Z,10.57
2023-04-15T08:36:43.105Z,10.39
2023-04-15T08:37:43.090Z,10.31
2023-04-15T08:38:43.050Z,10.30
2023-04-15T08:39:43.033Z,10.33
2023-04-15T08:40:43.045Z,10.31
2023-04-15T08:41:43.056Z,10.22
2023-04-15T08:42:43.725Z,10.11
2023-04-15T08:43:42.998Z,10.05
2023-04-15T08:44:43.020Z,10.06
2023-04-15T08:45:43.000Z,10.11
2023-04-15T08:46:42.990Z,10.16
2023-04-15T08:47:43.057Z,10.24
2023-04-15T08:48:42.974Z,10.31
2023-04-15T08:49:42.908Z,10.31
2023-04-15T08:50:42.905Z,10.21
2023-04-15T08:51:42.899Z,10.08
2023-04-15T08:52:42.878Z,9.96
2023-04-15T08:53:42.888Z,9.87
2023-04-15T08:54:42.866Z,9.76
2023-04-15T08:55:42.846Z,9.68
2023-04-15T08:56:42.872Z,9.63
2023-04-15T08:57:42.838Z,9.57
2023-04-15T08:58:42.802Z,9.50
2023-04-15T08:59:42.818Z,9.41
2023-04-15T09:00:42.765Z,9.32
2023-04-15T09:01:42.949Z,9.26
2023-04-15T09:02:43.054Z,9.29
2023-04-15T09:03:42.941Z,9.37
2023-04-15T09:04:42.755Z,9.45
2023-04-15T09:05:42.726Z,9.49
2023-04-15T09:06:42.709Z,9.51
2023-04-15T09:07:42.756Z,9.55
2023-04-15T09:08:42.739Z,9.63
2023-04-15T09:09:42.708Z,9.75
2023-04-15T09:10:42.650Z,9.77
2023-04-15T09:11:42.709Z,9.70
2023-04-15T09:12:42.657Z,9.62
2023-04-15T09:13:42.625Z,9.55
2023-04-15T09:14:42.605Z,9.51
2023-04-15T09:15:42.604Z,9.48
2023-04-15T09:16:42.640Z,9.51
2023-04-15T09:17:42.621Z,9.52
2023-04-15T09:18:42.554Z,9.56
2023-04-15T09:19:42.540Z,9.60
2023-04-15T09:20:42.547Z,9.66
2023-04-15T09:21:42.531Z,9.77
2023-04-15T09:22:42.504Z,9.92
2023-04-15T09:23:42.493Z,10.11
2023-04-15T09:24:42.512Z,10.39
2023-04-15T09:25:42.479Z,10.66
2023-04-15T09:26:42.482Z,10.91
2023-04-15T09:27:42.467Z,11.08
2023-04-15T09:28:42.437Z,11.19
2023-04-15T09:29:42.406Z,11.33
2023-04-15T09:30:42.439Z,11.37
2023-04-15T09:31:42.386Z,11.30
2023-04-15T09:32:42.484Z,11.21
2023-04-15T09:33:42.369Z,11.19
2023-04-15T09:34:42.406Z,11.22
2023-04-15T09:35:42.347Z,11.16
2023-04-15T09:36:42.324Z,11.14
2023-04-15T09:37:42.318Z,11.23
2023-04-15T09:38:42.321Z,11.33
2023-04-15T09:39:42.273Z,11.45
2023-04-15T09:40:42.271Z,11.62
2023-04-15T09:41:42.239Z,11.78
2023-04-15T09:42:42.255Z,11.90
2023-04-15T09:43:42.249Z,12.03
2023-04-15T09:44:42.227Z,12.22
2023-04-15T09:45:42.247Z,12.35
2023-04-15T09:46:42.232Z,12.38
2023-04-15T09:47:42.220Z,12.30
2023-04-15T09:48:42.160Z,12.13
2023-04-15T09:49:42.216Z,11.89
2023-04-15T09:50:42.149Z,11.65
2023-04-15T09:51:44.851Z,11.45
2023-04-15T09:52:42.133Z,11.32
2023-04-15T09:53:42.102Z,11.22
2023-04-15T09:54:42.087Z,11.14
2023-04-15T09:55:42.090Z,10.99
2023-04-15T09:56:42.065Z,10.82
2023-04-15T09:57:42.079Z,10.73
2023-04-15T09:58:42.062Z,10.78
2023-04-15T09:59:42.036Z,10.99
2023-04-15T10:00:42.017Z,11.27
2023-04-15T10:01:42.128Z,11.62
2023-04-15T10:02:42.064Z,12.04
2023-04-15T10:03:42.100Z,12.49
2023-04-15T10:04:41.956Z,12.73
2023-04-15T10:05:41.956Z,12.68
2023-04-15T10:06:41.929Z,12.63
2023-04-15T10:07:41.938Z,12.57
2023-04-15T10:08:41.932Z,12.54
2023-04-15T10:09:41.967Z,12.69
2023-04-15T10:10:41.898Z,12.97
2023-04-15T10:11:41.871Z,13.27
2023-04-15T10:12:41.898Z,13.62
2023-04-15T10:13:41.837Z,14.03
2023-04-15T10:14:41.860Z,14.42
2023-04-15T10:15:41.860Z,14.79
2023-04-15T10:16:41.812Z,15.15
2023-04-15T10:17:41.872Z,15.52
2023-04-15T10:18:41.816Z,15.76
2023-04-15T10:19:41.841Z,15.70
2023-04-15T10:20:41.783Z,15.49
2023-04-15T10:21:41.773Z,15.30
2023-04-15T10:22:41.745Z,15.25
2023-04-15T10:23:41.747Z,15.23
2023-04-15T10:24:41.736Z,15.12
2023-04-15T10:25:41.737Z,14.93
2023-04-15T10:26:41.690Z,14.84
2023-04-15T10:27:41.711Z,14.96
2023-04-15T10:28:41.683Z,15.27
2023-04-15T10:29:41.695Z,15.60
2023-04-15T10:30:41.651Z,15.82
2023-04-15T10:31:41.708Z,15.88
2023-04-15T10:32:41.681Z,15.86
2023-04-15T10:33:41.648Z,15.85
2023-04-15T10:34:41.608Z,15.90
2023-04-15T10:35:41.608Z,15.98
2023-04-15T10:36:41.581Z,15.98
2023-04-15T10:37:41.606Z,15.99
2023-04-15T10:38:41.583Z,16.06
2023-04-15T10:39:41.584Z,16.07
2023-04-15T10:40:41.595Z,15.85
2023-04-15T10:41:41.550Z,15.32
2023-04-15T10:42:41.504Z,14.66
2023-04-15T10:43:41.505Z,13.93
2023-04-15T10:44:41.509Z,13.36
2023-04-15T10:45:41.484Z,13.09
2023-04-15T10:46:41.597Z,12.96
2023-04-15T10:47:41.549Z,12.88
2023-04-15T10:48:41.458Z,12.87
2023-04-15T10:49:41.437Z,12.87
2023-04-15T10:50:41.406Z,12.89
2023-04-15T10:51:41.392Z,12.95
2023-04-15T10:52:41.402Z,13.02
2023-04-15T10:53:41.369Z,13.03
2023-04-15T10:54:41.350Z,13.03
2023-04-15T10:55:41.396Z,12.98
2023-04-15T10:56:41.329Z,12.89
2023-04-15T10:57:41.338Z,12.86
2023-04-15T10:58:41.347Z,12.91
2023-04-15T10:59:41.324Z,13.05
2023-04-15T11:00:41.289Z,13.18
2023-04-15T11:01:41.298Z,13.23
2023-04-15T11:02:41.807Z,13.29
2023-04-15T11:03:41.464Z,13.41
2023-04-15T11:04:43.087Z,13.44
2023-04-15T11:05:41.207Z,13.37
2023-04-15T11:06:41.193Z,13.17
2023-04-15T11:07:41.201Z,12.81
2023-04-15T11:08:41.199Z,12.46
2023-04-15T11:09:41.158Z,12.23
2023-04-15T11:10:41.200Z,12.13
2023-04-15T11:11:41.182Z,12.08
2023-04-15T11:12:41.156Z,12.01
2023-04-15T11:13:41.106Z,11.93
2023-04-15T11:14:41.146Z,11.95
2023-04-15T11:15:41.108Z,11.98
2023-04-15T11:16:41.136Z,11.98
2023-04-15T11:17:41.107Z,11.92
2023-04-15T11:18:41.067Z,11.81
2023-04-15T11:19:41.032Z,11.77
2023-04-15T11:20:41.051Z,11.86
2023-04-15T11:21:41.011Z,12.00
2023-04-15T11:22:41.024Z,12.15
2023-04-15T11:23:40.987Z,12.30
2023-04-15T11:24:40.970Z,12.44
2023-04-15T11:25:40.975Z,12.56
2023-04-15T11:26:40.964Z,12.61
2023-04-15T11:27:40.935Z,12.56
2023-04-15T11:28:40.965Z,12.52
2023-04-15T11:29:40.912Z,12.53
2023-04-15T11:30:40.910Z,12.59
2023-04-15T11:31:40.961Z,12.74
2023-04-15T11:32:40.892Z,12.90
2023-04-15T11:33:40.892Z,12.95
2023-04-15T11:34:40.875Z,12.89
2023-04-15T11:35:40.911Z,12.87
2023-04-15T11:36:40.811Z,12.97
2023-04-15T11:37:40.817Z,13.12
2023-04-15T11:38:40.805Z,13.30
2023-04-15T11:39:40.877Z,13.56
2023-04-15T11:40:40.810Z,13.83
2023-04-15T11:41:40.873Z,13.98
2023-04-15T11:42:49.535Z,14.02
2023-04-15T11:43:40.790Z,14.02
2023-04-15T11:44:40.713Z,14.03
2023-04-15T11:45:40.799Z,14.04
2023-04-15T11:46:40.828Z,13.95
2023-04-15T11:47:41.569Z,13.74
2023-04-15T11:48:40.683Z,13.47
2023-04-15T11:49:40.693Z,13.22
2023-04-15T11:50:40.691Z,13.02
2023-04-15T11:51:40.667Z,12.90
2023-04-15T11:52:40.614Z,12.73
2023-04-15T11:53:40.646Z,12.55
2023-04-15T11:54:40.606Z,12.43
2023-04-15T11:55:40.579Z,12.42
2023-04-15T11:56:40.579Z,12.56
2023-04-15T11:57:40.589Z,12.93
2023-04-15T11:58:40.574Z,13.47
2023-04-15T11:59:45.280Z,14.04
2023-04-15T12:00:40.548Z,14.54
2023-04-15T12:01:40.511Z,15.06
2023-04-15T12:02:40.577Z,15.53
2023-04-15T12:03:40.862Z,15.69
2023-04-15T12:04:40.641Z,15.65
2023-04-15T12:05:40.465Z,15.46
2023-04-15T12:06:40.469Z,15.23
2023-04-15T12:07:40.486Z,15.18
2023-04-15T12:08:40.452Z,15.21
2023-04-15T12:09:40.424Z,15.10
2023-04-15T12:10:40.440Z,14.90
2023-04-15T12:11:40.415Z,14.85
2023-04-15T12:12:40.373Z,14.94
2023-04-15T12:13:40.351Z,14.97
2023-04-15T12:14:40.393Z,14.91
2023-04-15T12:15:40.342Z,14.89
2023-04-15T12:16:48.602Z,14.84
2023-04-15T12:17:51.503Z,14.67
2023-04-15T12:18:40.315Z,14.48
2023-04-15T12:19:40.337Z,14.29
2023-04-15T12:20:40.288Z,14.07
2023-04-15T12:21:40.276Z,13.78
2023-04-15T12:22:40.261Z,13.37
2023-04-15T12:23:40.232Z,12.95
2023-04-15T12:24:40.258Z,12.54
2023-04-15T12:25:40.233Z,12.15
2023-04-15T12:26:40.265Z,11.83
2023-04-15T12:27:40.198Z,11.60
2023-04-15T12:28:40.158Z,11.41
2023-04-15T12:29:40.174Z,11.30
2023-04-15T12:30:40.207Z,11.30
2023-04-15T12:31:40.290Z,11.38
2023-04-15T12:32:42.221Z,11.50
2023-04-15T12:33:40.123Z,11.58
2023-04-15T12:34:40.114Z,11.60
2023-04-15T12:35:40.117Z,11.62
2023-04-15T12:36:40.221Z,11.68
2023-04-15T12:37:40.062Z,11.75
2023-04-15T12:38:40.084Z,11.79
2023-04-15T12:39:40.050Z,11.75
2023-04-15T12:40:40.040Z,11.65
2023-04-15T12:41:40.036Z,11.55
2023-04-15T12:42:39.990Z,11.53
2023-04-15T12:43:39.968Z,11.57
2023-04-15T12:44:39.993Z,11.62
2023-04-15T12:45:40.027Z,11.68
2023-04-15T12:46:40.113Z,11.75
2023-04-15T12:47:40.024Z,11.82
2023-04-15T12:48:39.946Z,11.91
2023-04-15T12:49:40.001Z,11.98
2023-04-15T12:50:39.920Z,11.99
2023-04-15T12:51:39.877Z,11.96
2023-04-15T12:52:39.883Z,11.96
2023-04-15T12:53:39.872Z,12.02
2023-04-15T12:54:39.835Z,12.04
2023-04-15T12:55:39.848Z,11.99
2023-04-15T12:56:39.851Z,11.93
2023-04-15T12:57:39.807Z,11.80
2023-04-15T12:58:39.788Z,11.65
2023-04-15T12:59:39.812Z,11.46
2023-04-15T13:00:39.781Z,11.28
2023-04-15T13:01:39.797Z,11.13
2023-04-15T13:02:40.065Z,11.03
2023-04-15T13:03:39.809Z,10.94
2023-04-15T13:04:39.816Z,10.90
2023-04-15T13:05:39.730Z,10.89